sensor_id;sensor_type;location;lat;lon;timestamp;temperature;humidity
70928;SHT31;58587;53.034;18.576;2023-04-03T15:35:12;7.24;44.63
70928;SHT31;58587;53.034;18.576;2023-04-03T15:37:37;7.01;43.40
70928;SHT31;58587;53.034;18.576;2023-04-03T15:40:04;6.96;42.63
70928;SHT31;58587;53.034;18.576;2023-04-03T15:42:30;6.87;44.05
70928;SHT31;58587;53.034;18.576;2023-04-03T15:44:55;6.76;44.64
70928;SHT31;58587;53.034;18.576;2023-04-03T15:47:21;6.43;45.93
70928;SHT31;58587;53.034;18.576;2023-04-03T15:49:46;6.20;46.82
70928;SHT31;58587;53.034;18.576;2023-04-03T15:52:11;6.21;47.63
70928;SHT31;58587;53.034;18.576;2023-04-03T15:54:37;6.05;49.16
70928;SHT31;58587;53.034;18.576;2023-04-03T15:57:02;6.10;50.28
70928;SHT31;58587;53.034;18.576;2023-04-03T15:59:27;5.93;50.25
70928;SHT31;58587;53.034;18.576;2023-04-03T16:01:55;5.81;50.35
70928;SHT31;58587;53.034;18.576;2023-04-03T16:04:21;5.50;49.97
70928;SHT31;58587;53.034;18.576;2023-04-03T16:06:46;5.42;50.58
70928;SHT31;58587;53.034;18.576;2023-04-03T16:09:12;5.13;52.27
70928;SHT31;58587;53.034;18.576;2023-04-03T16:11:37;5.00;53.17
70928;SHT31;58587;53.034;18.576;2023-04-03T16:14:06;4.78;53.55
70928;SHT31;58587;53.034;18.576;2023-04-03T16:16:31;4.82;53.42
70928;SHT31;58587;53.034;18.576;2023-04-03T16:18:56;4.64;53.18
70928;SHT31;58587;53.034;18.576;2023-04-03T16:21:22;4.48;52.83
70928;SHT31;58587;53.034;18.576;2023-04-03T16:23:48;4.43;52.30
70928;SHT31;58587;53.034;18.576;2023-04-03T16:26:14;4.31;52.53
70928;SHT31;58587;53.034;18.576;2023-04-03T16:28:40;4.20;53.37
70928;SHT31;58587;53.034;18.576;2023-04-03T16:31:07;4.14;52.93
70928;SHT31;58587;53.034;18.576;2023-04-03T16:33:32;4.18;52.71
70928;SHT31;58587;53.034;18.576;2023-04-03T16:35:58;4.13;53.41
70928;SHT31;58587;53.034;18.576;2023-04-03T16:38:24;4.06;53.45
70928;SHT31;58587;53.034;18.576;2023-04-03T16:40:50;4.09;52.66
70928;SHT31;58587;53.034;18.576;2023-04-03T16:43:17;4.00;51.71
70928;SHT31;58587;53.034;18.576;2023-04-03T16:45:42;3.91;52.41
70928;SHT31;58587;53.034;18.576;2023-04-03T16:48:08;3.79;52.69
70928;SHT31;58587;53.034;18.576;2023-04-03T16:50:33;3.70;52.61
70928;SHT31;58587;53.034;18.576;2023-04-03T16:52:58;3.68;52.12
70928;SHT31;58587;53.034;18.576;2023-04-03T16:55:24;3.66;51.27
70928;SHT31;58587;53.034;18.576;2023-04-03T16:57:49;3.55;52.03
70928;SHT31;58587;53.034;18.576;2023-04-03T17:00:15;3.45;53.01
70928;SHT31;58587;53.034;18.576;2023-04-03T17:02:40;3.40;54.01
70928;SHT31;58587;53.034;18.576;2023-04-03T17:05:06;3.36;54.86
70928;SHT31;58587;53.034;18.576;2023-04-03T17:07:32;3.31;55.31
70928;SHT31;58587;53.034;18.576;2023-04-03T17:09:57;3.24;55.73
70928;SHT31;58587;53.034;18.576;2023-04-03T17:12:23;3.14;57.38
70928;SHT31;58587;53.034;18.576;2023-04-03T17:14:49;3.14;57.22
70928;SHT31;58587;53.034;18.576;2023-04-03T17:17:15;3.07;58.07
70928;SHT31;58587;53.034;18.576;2023-04-03T17:19:43;3.01;57.74
70928;SHT31;58587;53.034;18.576;2023-04-03T17:22:09;2.91;58.16
70928;SHT31;58587;53.034;18.576;2023-04-03T17:24:35;2.90;58.76
70928;SHT31;58587;53.034;18.576;2023-04-03T17:27:01;2.83;58.44
70928;SHT31;58587;53.034;18.576;2023-04-03T17:29:26;2.80;58.55
70928;SHT31;58587;53.034;18.576;2023-04-03T17:31:52;2.74;58.20
70928;SHT31;58587;53.034;18.576;2023-04-03T17:34:17;2.70;58.47
70928;SHT31;58587;53.034;18.576;2023-04-03T17:36:42;2.72;58.27
70928;SHT31;58587;53.034;18.576;2023-04-03T17:39:08;2.61;58.21
70928;SHT31;58587;53.034;18.576;2023-04-03T17:41:33;2.61;58.73
70928;SHT31;58587;53.034;18.576;2023-04-03T17:43:59;2.52;59.71
70928;SHT31;58587;53.034;18.576;2023-04-03T17:46:24;2.52;60.54
70928;SHT31;58587;53.034;18.576;2023-04-03T17:48:50;2.44;61.23
70928;SHT31;58587;53.034;18.576;2023-04-03T17:51:19;2.47;61.36
70928;SHT31;58587;53.034;18.576;2023-04-03T17:53:45;2.49;62.12
70928;SHT31;58587;53.034;18.576;2023-04-03T17:56:16;2.50;62.53
70928;SHT31;58587;53.034;18.576;2023-04-03T17:58:42;2.39;63.69
70928;SHT31;58587;53.034;18.576;2023-04-03T18:03:38;2.33;63.59
70928;SHT31;58587;53.034;18.576;2023-04-03T18:06:05;2.39;62.51
70928;SHT31;58587;53.034;18.576;2023-04-03T18:08:34;2.33;61.96
70928;SHT31;58587;53.034;18.576;2023-04-03T18:11:02;2.34;62.39
70928;SHT31;58587;53.034;18.576;2023-04-03T18:13:27;2.33;62.17
70928;SHT31;58587;53.034;18.576;2023-04-03T18:15:53;2.34;61.36
70928;SHT31;58587;53.034;18.576;2023-04-03T18:18:18;2.29;60.61
70928;SHT31;58587;53.034;18.576;2023-04-03T18:20:43;2.32;60.76
70928;SHT31;58587;53.034;18.576;2023-04-03T18:23:09;2.33;61.11
70928;SHT31;58587;53.034;18.576;2023-04-03T18:25:36;2.36;61.44
70928;SHT31;58587;53.034;18.576;2023-04-03T18:28:01;2.39;60.98
70928;SHT31;58587;53.034;18.576;2023-04-03T18:30:33;2.36;60.99
70928;SHT31;58587;53.034;18.576;2023-04-03T18:32:59;2.34;62.02
70928;SHT31;58587;53.034;18.576;2023-04-03T18:35:27;2.34;62.29
70928;SHT31;58587;53.034;18.576;2023-04-03T18:37:52;2.36;62.78
70928;SHT31;58587;53.034;18.576;2023-04-03T18:40:18;2.42;62.50
70928;SHT31;58587;53.034;18.576;2023-04-03T18:42:43;2.39;62.79
70928;SHT31;58587;53.034;18.576;2023-04-03T18:45:11;2.37;62.91
70928;SHT31;58587;53.034;18.576;2023-04-03T18:47:37;2.40;62.87
70928;SHT31;58587;53.034;18.576;2023-04-03T18:50:04;2.42;62.65
70928;SHT31;58587;53.034;18.576;2023-04-03T18:52:31;2.37;62.67
70928;SHT31;58587;53.034;18.576;2023-04-03T18:54:56;2.37;62.97
70928;SHT31;58587;53.034;18.576;2023-04-03T18:57:22;2.37;63.10
70928;SHT31;58587;53.034;18.576;2023-04-03T18:59:47;2.30;63.03
70928;SHT31;58587;53.034;18.576;2023-04-03T19:02:12;2.28;63.37
70928;SHT31;58587;53.034;18.576;2023-04-03T19:04:38;2.30;64.00
70928;SHT31;58587;53.034;18.576;2023-04-03T19:07:03;2.26;63.58
70928;SHT31;58587;53.034;18.576;2023-04-03T19:09:31;2.26;64.71
70928;SHT31;58587;53.034;18.576;2023-04-03T19:11:57;2.23;64.42
70928;SHT31;58587;53.034;18.576;2023-04-03T19:14:22;2.28;64.71
70928;SHT31;58587;53.034;18.576;2023-04-03T19:16:48;2.30;65.14
70928;SHT31;58587;53.034;18.576;2023-04-03T19:19:13;2.28;65.64
70928;SHT31;58587;53.034;18.576;2023-04-03T19:21:38;2.25;65.85
70928;SHT31;58587;53.034;18.576;2023-04-03T19:24:09;2.30;66.14
70928;SHT31;58587;53.034;18.576;2023-04-03T19:26:35;2.32;66.05
70928;SHT31;58587;53.034;18.576;2023-04-03T19:29:00;2.30;66.43
70928;SHT31;58587;53.034;18.576;2023-04-03T19:31:26;2.32;66.58
70928;SHT31;58587;53.034;18.576;2023-04-03T19:33:51;2.36;66.66
70928;SHT31;58587;53.034;18.576;2023-04-03T19:36:17;2.30;66.56
70928;SHT31;58587;53.034;18.576;2023-04-03T19:38:42;2.28;66.84
70928;SHT31;58587;53.034;18.576;2023-04-03T19:41:13;2.29;66.37
70928;SHT31;58587;53.034;18.576;2023-04-03T19:43:39;2.32;65.76
70928;SHT31;58587;53.034;18.576;2023-04-03T19:46:06;2.33;65.35
70928;SHT31;58587;53.034;18.576;2023-04-03T19:48:31;2.39;64.61
70928;SHT31;58587;53.034;18.576;2023-04-03T19:50:57;2.36;64.58
70928;SHT31;58587;53.034;18.576;2023-04-03T19:53:22;2.30;64.86
70928;SHT31;58587;53.034;18.576;2023-04-03T19:55:54;2.36;64.76
70928;SHT31;58587;53.034;18.576;2023-04-03T19:58:20;2.28;64.31
70928;SHT31;58587;53.034;18.576;2023-04-03T20:00:46;2.25;64.52
70928;SHT31;58587;53.034;18.576;2023-04-03T20:03:12;2.26;63.82
70928;SHT31;58587;53.034;18.576;2023-04-03T20:05:37;2.25;63.75
70928;SHT31;58587;53.034;18.576;2023-04-03T20:08:03;2.21;63.11
70928;SHT31;58587;53.034;18.576;2023-04-03T20:10:28;2.21;63.37
70928;SHT31;58587;53.034;18.576;2023-04-03T20:12:54;2.19;63.61
70928;SHT31;58587;53.034;18.576;2023-04-03T20:15:19;2.18;63.16
70928;SHT31;58587;53.034;18.576;2023-04-03T20:17:45;2.19;62.87
70928;SHT31;58587;53.034;18.576;2023-04-03T20:20:10;2.19;62.53
70928;SHT31;58587;53.034;18.576;2023-04-03T20:22:37;2.18;62.76
70928;SHT31;58587;53.034;18.576;2023-04-03T20:25:05;2.18;62.73
70928;SHT31;58587;53.034;18.576;2023-04-03T20:27:30;2.19;62.53
70928;SHT31;58587;53.034;18.576;2023-04-03T20:29:56;2.16;62.25
70928;SHT31;58587;53.034;18.576;2023-04-03T20:32:22;2.15;62.31
70928;SHT31;58587;53.034;18.576;2023-04-03T20:34:47;2.19;63.05
70928;SHT31;58587;53.034;18.576;2023-04-03T20:37:13;2.18;62.99
70928;SHT31;58587;53.034;18.576;2023-04-03T20:39:44;2.15;63.16
70928;SHT31;58587;53.034;18.576;2023-04-03T20:42:09;2.18;63.21
70928;SHT31;58587;53.034;18.576;2023-04-03T20:44:35;2.19;63.20
70928;SHT31;58587;53.034;18.576;2023-04-03T20:47:01;2.16;63.30
70928;SHT31;58587;53.034;18.576;2023-04-03T20:49:26;2.08;63.58
70928;SHT31;58587;53.034;18.576;2023-04-03T20:51:51;2.05;63.60
70928;SHT31;58587;53.034;18.576;2023-04-03T20:54:17;1.99;63.96
70928;SHT31;58587;53.034;18.576;2023-04-03T20:56:43;1.98;64.05
70928;SHT31;58587;53.034;18.576;2023-04-03T20:59:09;1.89;64.30
70928;SHT31;58587;53.034;18.576;2023-04-03T21:01:35;1.82;64.46
70928;SHT31;58587;53.034;18.576;2023-04-03T21:04:13;1.82;65.55
70928;SHT31;58587;53.034;18.576;2023-04-03T21:21:23;1.61;65.75
70928;SHT31;58587;53.034;18.576;2023-04-03T21:23:49;1.62;65.71
70928;SHT31;58587;53.034;18.576;2023-04-03T21:26:22;1.62;66.66
70928;SHT31;58587;53.034;18.576;2023-04-03T21:28:50;1.59;65.82
70928;SHT31;58587;53.034;18.576;2023-04-03T21:31:17;1.58;66.52
70928;SHT31;58587;53.034;18.576;2023-04-03T21:33:42;1.58;67.03
70928;SHT31;58587;53.034;18.576;2023-04-03T21:36:08;1.52;67.03
